createdAt,value
2018-12-09T00:02:04.594Z,98071.55
2018-12-09T00:05:11.987Z,98059.57
2018-12-09T00:08:16.367Z,98067.72
2018-12-09T00:11:21.265Z,98059.48
2018-12-09T00:14:25.680Z,98059.94
2018-12-09T00:17:31.116Z,98057.80
2018-12-09T00:20:35.771Z,98052.68
2018-12-09T00:23:40.376Z,98054.38
2018-12-09T00:26:45.829Z,98045.29
2018-12-09T00:29:50.380Z,98038.88
2018-12-09T00:32:56.695Z,98032.02
2018-12-09T00:36:01.249Z,98033.63
2018-12-09T00:39:07.710Z,98034.11
2018-12-09T00:42:12.441Z,98028.59
2018-12-09T00:45:17.248Z,98024.33
2018-12-09T00:48:22.062Z,98025.61
2018-12-09T00:51:26.650Z,98017.42
2018-12-09T00:54:31.363Z,98017.38
2018-12-09T00:57:36.194Z,98021.69
2018-12-09T01:00:40.878Z,98019.11
2018-12-09T01:03:46.594Z,98017.33
2018-12-09T01:10:06.704Z,98009.53
2018-12-09T01:13:11.653Z,98012.97
2018-12-09T01:16:16.176Z,98035.31
2018-12-09T01:19:20.719Z,98030.23
2018-12-09T01:22:25.731Z,98025.57
2018-12-09T01:25:30.505Z,98026.05
2018-12-09T01:28:35.259Z,98026.86
2018-12-09T01:31:39.898Z,98027.35
2018-12-09T01:34:44.538Z,98027.84
2018-12-09T01:37:50.451Z,98022.23
2018-12-09T01:40:55.788Z,98009.41
2018-12-09T01:44:00.301Z,98011.99
2018-12-09T01:47:06.521Z,98005.67
2018-12-09T01:50:11.215Z,98006.11
2018-12-09T01:54:37.106Z,98010.51
2018-12-09T01:57:42.335Z,98016.16
2018-12-09T02:00:47.080Z,98013.58
2018-12-09T02:03:51.577Z,98011.15
2018-12-09T02:06:56.234Z,98013.80
2018-12-09T02:10:00.697Z,98015.60
2018-12-09T02:13:05.444Z,98015.23
2018-12-09T02:16:10.031Z,98009.26
2018-12-09T02:19:22.576Z,98007.16
2018-12-09T02:22:27.144Z,98002.84
2018-12-09T02:25:36.231Z,98003.73
2018-12-09T02:28:40.964Z,98005.93
2018-12-09T02:31:45.880Z,98007.25
2018-12-09T02:34:55.939Z,98011.14
2018-12-09T02:38:00.489Z,98015.39
2018-12-09T02:41:05.046Z,98027.37
2018-12-09T02:44:09.947Z,98014.89
2018-12-09T02:47:14.940Z,98009.67
2018-12-09T02:50:19.917Z,98005.39
2018-12-09T02:53:24.693Z,98012.24
2018-12-09T02:56:32.590Z,98010.95
2018-12-09T02:59:37.367Z,98002.81
2018-12-09T03:02:41.943Z,98011.02
2018-12-09T03:05:46.671Z,98008.47
2018-12-09T03:08:51.149Z,98015.80
2018-12-09T03:11:56.234Z,98020.05
2018-12-09T03:15:01.639Z,98022.15
2018-12-09T03:18:06.421Z,98016.99
2018-12-09T03:21:11.045Z,98010.55
2018-12-09T03:24:15.767Z,98012.27
2018-12-09T03:27:20.929Z,98000.67
2018-12-09T03:30:25.601Z,98010.55
2018-12-09T03:33:30.294Z,98016.05
2018-12-09T03:36:35.174Z,98013.02
2018-12-09T03:39:39.928Z,98010.08
2018-12-09T03:42:44.410Z,98019.16
2018-12-09T03:45:48.962Z,98017.47
2018-12-09T03:48:53.516Z,98021.74
2018-12-09T03:51:58.256Z,98021.67
2018-12-09T03:55:03.071Z,98022.12
2018-12-09T03:58:07.528Z,98027.78
2018-12-09T04:01:12.380Z,98027.34
2018-12-09T04:04:17.540Z,98029.56
2018-12-09T04:07:22.310Z,98024.88
2018-12-09T04:10:27.009Z,98029.63
2018-12-09T04:13:31.682Z,98032.64
2018-12-09T04:16:37.604Z,98030.50
2018-12-09T04:19:42.238Z,98033.08
2018-12-09T04:22:47.807Z,98026.61
2018-12-09T04:25:52.476Z,98030.06
2018-12-09T04:28:57.074Z,98033.93
2018-12-09T04:32:01.684Z,98039.02
2018-12-09T04:35:06.974Z,98042.42
2018-12-09T04:38:11.614Z,98052.70
2018-12-09T04:41:17.517Z,98057.36
2018-12-09T04:44:22.182Z,98059.06
2018-12-09T04:47:27.899Z,98053.43
2018-12-09T04:50:32.538Z,98060.29
2018-12-09T04:53:38.174Z,98061.13
2018-12-09T04:56:43.408Z,98061.98
2018-12-09T04:59:51.562Z,98064.56
2018-12-09T05:02:57.107Z,98069.69
2018-12-09T05:06:01.418Z,98080.37
2018-12-09T05:09:07.192Z,98086.83
2018-12-09T05:12:11.688Z,98083.40
2018-12-09T05:15:16.607Z,98086.02
2018-12-09T05:18:21.875Z,98088.15
2018-12-09T05:21:26.895Z,98086.01
2018-12-09T05:24:31.467Z,98092.45
2018-12-09T05:27:36.252Z,98100.22
2018-12-09T05:30:40.629Z,98099.44
2018-12-09T05:33:46.659Z,98102.86
2018-12-09T05:36:51.076Z,98105.06
2018-12-09T05:39:56.671Z,98102.48
2018-12-09T05:43:02.080Z,98108.52
2018-12-09T05:46:08.480Z,98117.98
2018-12-09T05:49:13.112Z,98114.49
2018-12-09T05:52:17.685Z,98125.63
2018-12-09T05:55:22.200Z,98135.01
2018-12-09T05:58:29.286Z,98138.88
2018-12-09T06:01:33.923Z,98142.72
2018-12-09T06:04:38.640Z,98133.28
2018-12-09T06:07:44.004Z,98133.31
2018-12-09T06:10:49.154Z,98142.37
2018-12-09T06:13:53.808Z,98139.40
2018-12-09T06:16:58.276Z,98143.76
2018-12-09T06:20:03.018Z,98148.94
2018-12-09T06:23:07.358Z,98146.41
2018-12-09T06:26:12.496Z,98149.01
2018-12-09T06:29:16.906Z,98160.62
2018-12-09T06:32:21.281Z,98159.75
2018-12-09T06:35:26.966Z,98161.02
2018-12-09T06:38:31.430Z,98167.05
2018-12-09T06:41:37.066Z,98171.77
2018-12-09T06:44:42.568Z,98179.54
2018-12-09T06:47:48.181Z,98188.10
2018-12-09T06:50:52.605Z,98184.69
2018-12-09T06:53:57.018Z,98195.85
2018-12-09T06:57:01.409Z,98199.70
2018-12-09T07:00:09.530Z,98198.88
2018-12-09T07:03:14.529Z,98209.17
2018-12-09T07:06:18.980Z,98220.36
2018-12-09T07:09:23.799Z,98223.78
2018-12-09T07:12:28.671Z,98231.95
2018-12-09T07:15:33.307Z,98234.48
2018-12-09T07:18:37.841Z,98237.95
2018-12-09T07:21:42.328Z,98248.27
2018-12-09T07:24:47.361Z,98253.02
2018-12-09T07:27:51.888Z,98261.61
2018-12-09T07:30:56.564Z,98268.04
2018-12-09T07:34:01.382Z,98273.61
2018-12-09T07:37:06.238Z,98275.31
2018-12-09T07:40:12.547Z,98282.64
2018-12-09T07:43:17.196Z,98288.22
2018-12-09T07:46:21.649Z,98295.95
2018-12-09T07:49:26.515Z,98304.07
2018-12-09T07:52:31.620Z,98306.66
2018-12-09T07:55:35.986Z,98316.14
2018-12-09T07:58:40.705Z,98311.84
2018-12-09T08:01:46.016Z,98321.70
2018-12-09T08:04:50.549Z,98323.42
2018-12-09T08:07:54.973Z,98335.45
2018-12-09T08:10:59.342Z,98342.75
2018-12-09T08:14:04.226Z,98346.20
2018-12-09T08:17:08.578Z,98356.51
2018-12-09T08:20:13.796Z,98354.80
2018-12-09T08:23:18.336Z,98354.78
2018-12-09T08:26:22.778Z,98356.91
2018-12-09T08:29:27.266Z,98359.52
2018-12-09T08:32:32.036Z,98361.69
2018-12-09T08:35:37.698Z,98369.40
2018-12-09T08:38:42.961Z,98377.56
2018-12-09T08:41:47.318Z,98383.16
2018-12-09T08:44:51.800Z,98389.59
2018-12-09T08:47:57.003Z,98387.02
2018-12-09T08:51:02.226Z,98394.73
2018-12-09T08:54:06.548Z,98393.88
2018-12-09T08:57:11.382Z,98396.45
2018-12-09T09:00:15.899Z,98404.61
2018-12-09T09:03:20.430Z,98408.04
2018-12-09T09:06:24.949Z,98417.92
2018-12-09T09:09:29.518Z,98428.66
2018-12-09T09:12:34.044Z,98420.50
2018-12-09T09:15:42.272Z,98421.80
2018-12-09T09:18:46.840Z,98421.36
2018-12-09T09:21:52.044Z,98419.62
2018-12-09T09:24:58.351Z,98417.48
2018-12-09T09:28:02.738Z,98424.34
2018-12-09T09:31:07.176Z,98426.04
2018-12-09T09:34:12.556Z,98426.86
2018-12-09T09:37:16.984Z,98433.71
2018-12-09T09:43:37.276Z,98442.70
2018-12-09T09:49:55.812Z,98453.89
2018-12-09T09:53:00.970Z,98453.44
2018-12-09T09:56:05.561Z,98455.14
2018-12-09T09:59:12.684Z,98454.29
2018-12-09T10:02:17.207Z,98459.83
2018-12-09T10:05:23.386Z,98465.86
2018-12-09T10:08:28.073Z,98471.88
2018-12-09T10:11:36.765Z,98478.77
2018-12-09T10:14:42.226Z,98467.61
2018-12-09T10:21:09.969Z,98460.76
2018-12-09T10:24:14.621Z,98462.95
2018-12-09T10:27:19.317Z,98454.78
2018-12-09T10:33:38.579Z,98465.55
2018-12-09T10:36:49.044Z,98479.68
2018-12-09T10:39:54.319Z,98485.72
2018-12-09T10:42:59.163Z,98484.86
2018-12-09T10:46:13.067Z,98491.33
2018-12-09T10:49:18.581Z,98502.08
2018-12-09T10:52:23.701Z,98505.55
2018-12-09T10:55:29.897Z,98509.42
2018-12-09T10:58:34.638Z,98490.52
2018-12-09T11:01:39.328Z,98490.95
2018-12-09T11:04:44.856Z,98487.08
2018-12-09T11:07:50.690Z,98499.09
2018-12-09T11:14:22.495Z,98502.52
2018-12-09T11:17:28.652Z,98503.81
2018-12-09T11:20:33.162Z,98497.38
2018-12-09T11:23:40.669Z,98503.83
2018-12-09T11:30:12.705Z,98508.98
2018-12-09T11:33:17.624Z,98501.27
2018-12-09T11:36:22.685Z,98500.80
2018-12-09T11:42:39.731Z,98515.84
2018-12-09T11:45:45.648Z,98520.58
2018-12-09T11:48:50.933Z,98525.72
2018-12-09T11:51:55.568Z,98521.02
2018-12-09T11:55:00.117Z,98524.02
2018-12-09T11:58:04.921Z,98516.73
2018-12-09T12:01:09.555Z,98531.76
2018-12-09T12:04:14.040Z,98533.50
2018-12-09T12:07:18.491Z,98529.17
2018-12-09T12:10:23.047Z,98534.34
2018-12-09T12:13:27.518Z,98541.64
2018-12-09T12:16:31.913Z,98553.67
2018-12-09T12:19:36.211Z,98567.43
2018-12-09T12:22:41.885Z,98575.61
2018-12-09T12:25:46.328Z,98573.45
2018-12-09T12:28:50.662Z,98580.76
2018-12-09T12:31:55.598Z,98579.48
2018-12-09T12:35:00.032Z,98585.51
2018-12-09T12:38:04.551Z,98593.25
2018-12-09T12:41:09.002Z,98592.36
2018-12-09T12:44:13.812Z,98599.69
2018-12-09T12:47:18.120Z,98609.99
2018-12-09T12:50:22.748Z,98616.02
2018-12-09T12:53:27.295Z,98613.00
2018-12-09T12:56:31.727Z,98626.77
2018-12-09T12:59:36.220Z,98628.91
2018-12-09T13:02:40.686Z,98629.77
2018-12-09T13:05:45.174Z,98645.70
2018-12-09T13:08:49.569Z,98651.72
2018-12-09T13:11:53.937Z,98649.98
2018-12-09T13:14:58.364Z,98649.14
2018-12-09T13:18:02.688Z,98663.75
2018-12-09T13:21:07.376Z,98659.02
2018-12-09T13:24:13.237Z,98671.06
2018-12-09T13:27:17.815Z,98675.34
2018-12-09T13:30:22.237Z,98668.05
2018-12-09T13:33:26.615Z,98671.49
2018-12-09T13:36:33.836Z,98677.48
2018-12-09T13:39:38.741Z,98680.09
2018-12-09T13:42:43.135Z,98696.41
2018-12-09T13:45:47.523Z,98695.15
2018-12-09T13:48:55.957Z,98699.02
2018-12-09T13:52:00.261Z,98711.50
2018-12-09T13:55:05.532Z,98714.06
2018-12-09T13:58:09.950Z,98723.55
2018-12-09T14:01:14.365Z,98731.28
2018-12-09T14:04:18.712Z,98735.15
2018-12-09T14:07:23.125Z,98732.57
2018-12-09T14:10:28.681Z,98747.64
2018-12-09T14:13:34.657Z,98741.16
2018-12-09T14:19:53.237Z,98759.25
2018-12-09T14:22:59.527Z,98765.27
2018-12-09T14:26:05.399Z,98776.02
2018-12-09T14:29:09.737Z,98770.44
2018-12-09T14:32:17.035Z,98785.50
2018-12-09T14:35:22.973Z,98789.39
2018-12-09T14:38:27.461Z,98788.92
2018-12-09T14:41:32.605Z,98801.40
2018-12-09T14:44:39.429Z,98807.86
2018-12-09T14:47:46.207Z,98807.87
2018-12-09T14:50:50.971Z,98816.03
2018-12-09T14:53:58.318Z,98819.03
2018-12-09T14:57:03.179Z,98820.28
2018-12-09T15:00:09.810Z,98828.89
2018-12-09T15:03:17.836Z,98845.21
2018-12-09T15:06:25.545Z,98857.27
2018-12-09T15:09:35.438Z,98866.67
2018-12-09T15:12:41.518Z,98873.98
2018-12-09T15:15:46.079Z,98880.43
2018-12-09T15:18:51.812Z,98880.40
2018-12-09T15:21:56.455Z,98901.48
2018-12-09T15:25:00.978Z,98906.14
2018-12-09T15:28:05.633Z,98906.54
2018-12-09T15:31:10.513Z,98921.15
2018-12-09T15:34:15.185Z,98921.57
2018-12-09T15:37:19.856Z,98930.55
2018-12-09T15:40:24.552Z,98932.33
2018-12-09T15:43:29.941Z,98943.04
2018-12-09T15:46:34.732Z,98958.13
2018-12-09T15:49:39.552Z,98956.38
2018-12-09T15:52:44.366Z,98964.61
2018-12-09T15:55:49.014Z,98966.39
2018-12-09T15:58:54.794Z,98974.99
2018-12-09T16:01:59.472Z,98974.08
2018-12-09T16:05:04.107Z,99002.92
2018-12-09T16:08:08.520Z,99002.95
2018-12-09T16:11:13.638Z,99006.78
2018-12-09T16:14:18.740Z,99024.02
2018-12-09T16:20:38.165Z,99034.32
2018-12-09T16:23:43.212Z,99055.30
2018-12-09T16:26:47.738Z,99063.47
2018-12-09T16:29:52.398Z,99075.48
2018-12-09T16:32:56.786Z,99081.03
2018-12-09T16:36:01.306Z,99091.37
2018-12-09T16:39:07.831Z,99096.10
2018-12-09T16:42:12.297Z,99105.48
2018-12-09T16:45:16.991Z,99126.06
2018-12-09T16:48:21.489Z,99132.81
2018-12-09T16:51:31.679Z,99136.66
2018-12-09T16:57:52.020Z,99162.91
2018-12-09T17:00:57.774Z,99164.55
2018-12-09T17:04:02.789Z,99175.72
2018-12-09T17:07:07.522Z,99197.11
2018-12-09T17:10:12.209Z,99207.33
2018-12-09T17:13:16.818Z,99213.83
2018-12-09T17:16:21.451Z,99223.22
2018-12-09T17:19:27.127Z,99223.22
2018-12-09T17:22:31.495Z,99247.77
2018-12-09T17:25:37.623Z,99250.48
2018-12-09T17:28:43.365Z,99260.66
2018-12-09T17:31:50.251Z,99268.85
2018-12-09T17:34:54.611Z,99275.03
2018-12-09T17:37:59.364Z,99284.78
2018-12-09T17:41:04.074Z,99293.77
2018-12-09T17:44:08.703Z,99308.37
2018-12-09T17:47:18.326Z,99315.64
2018-12-09T17:50:34.900Z,99312.20
2018-12-09T17:53:39.602Z,99330.72
2018-12-09T17:56:43.967Z,99343.75
2018-12-09T17:59:48.796Z,99354.52
2018-12-09T18:02:53.350Z,99352.30
2018-12-09T18:05:58.155Z,99361.33
2018-12-09T18:09:03.069Z,99363.08
2018-12-09T18:12:10.482Z,99377.72
2018-12-09T18:15:19.614Z,99393.12
2018-12-09T18:18:24.619Z,99396.59
2018-12-09T18:21:29.230Z,99400.92
2018-12-09T18:24:33.837Z,99418.08
2018-12-09T18:27:38.802Z,99428.27
2018-12-09T18:30:43.295Z,99440.66
2018-12-09T18:33:50.803Z,99444.31
2018-12-09T18:36:55.644Z,99454.66
2018-12-09T18:40:00.445Z,99468.84
2018-12-09T18:43:05.273Z,99471.89
2018-12-09T18:46:09.753Z,99484.17
2018-12-09T18:49:14.451Z,99487.95
2018-12-09T18:52:19.044Z,99497.73
2018-12-09T18:55:24.105Z,99504.95
2018-12-09T18:58:28.704Z,99525.55
2018-12-09T19:01:33.518Z,99524.12
2018-12-09T19:04:38.283Z,99537.05
2018-12-09T19:07:43.131Z,99543.64
2018-12-09T19:10:49.304Z,99548.36
2018-12-09T19:13:54.489Z,99552.03
2018-12-09T19:16:59.157Z,99566.09
2018-12-09T19:20:05.192Z,99571.55
2018-12-09T19:23:09.952Z,99577.03
2018-12-09T19:26:16.731Z,99569.15
2018-12-09T19:29:22.587Z,99573.92
2018-12-09T19:32:28.784Z,99582.18
2018-12-09T19:35:33.954Z,99588.63
2018-12-09T19:38:40.322Z,99602.89
2018-12-09T19:41:45.543Z,99614.91
2018-12-09T19:44:51.121Z,99616.92
2018-12-09T19:47:57.306Z,99633.50
2018-12-09T19:51:02.358Z,99639.77
2018-12-09T19:54:07.533Z,99646.33
2018-12-09T19:57:14.670Z,99655.48
2018-12-09T20:00:19.486Z,99654.38
2018-12-09T20:03:24.345Z,99670.69
2018-12-09T20:06:29.533Z,99664.03
2018-12-09T20:09:34.200Z,99680.40
2018-12-09T20:12:39.115Z,99683.25
2018-12-09T20:15:48.660Z,99686.08
2018-12-09T20:18:53.812Z,99695.41
2018-12-09T20:21:58.834Z,99711.75
2018-12-09T20:25:04.247Z,99717.27
2018-12-09T20:28:09.265Z,99727.77
2018-12-09T20:31:14.308Z,99737.58
2018-12-09T20:34:20.118Z,99738.16
2018-12-09T20:37:25.082Z,99749.20
2018-12-09T20:40:30.057Z,99752.80
2018-12-09T20:43:35.549Z,99756.55
2018-12-09T20:46:40.493Z,99751.20
2018-12-09T20:49:45.261Z,99759.30
2018-12-09T20:52:50.417Z,99762.61
2018-12-09T20:55:55.288Z,99768.93
2018-12-09T20:59:00.145Z,99771.74
2018-12-09T21:02:05.429Z,99778.55
2018-12-09T21:05:11.577Z,99779.78
2018-12-09T21:08:16.774Z,99788.48
2018-12-09T21:11:22.409Z,99785.66
2018-12-09T21:14:30.468Z,99798.11
2018-12-09T21:17:34.977Z,99798.84
2018-12-09T21:20:39.931Z,99810.87
2018-12-09T21:23:44.712Z,99815.58
2018-12-09T21:30:03.775Z,99831.18
2018-12-09T21:33:09.869Z,99833.13
2018-12-09T21:36:14.467Z,99845.16
2018-12-09T21:39:19.406Z,99853.00
2018-12-09T21:42:24.406Z,99838.72
2018-12-09T21:45:29.602Z,99858.50
2018-12-09T21:48:34.110Z,99866.30
2018-12-09T21:51:38.671Z,99862.22
2018-12-09T21:54:45.908Z,99863.37
2018-12-09T21:57:51.561Z,99866.80
2018-12-09T22:00:57.752Z,99864.88
2018-12-09T22:04:03.113Z,99867.71
2018-12-09T22:07:07.566Z,99878.89
2018-12-09T22:10:12.421Z,99887.31
2018-12-09T22:13:17.320Z,99879.50
2018-12-09T22:16:22.394Z,99889.22
2018-12-09T22:19:27.290Z,99893.75
2018-12-09T22:22:32.188Z,99913.11
2018-12-09T22:25:37.340Z,99907.27
2018-12-09T22:28:41.817Z,99909.84
2018-12-09T22:31:48.645Z,99912.63
2018-12-09T22:34:53.454Z,99913.73
2018-12-09T22:41:12.203Z,99941.59
2018-12-09T22:44:17.042Z,99931.78
2018-12-09T22:47:21.958Z,99931.88
2018-12-09T22:50:26.741Z,99932.67
2018-12-09T22:53:31.443Z,99943.67
2018-12-09T22:56:36.259Z,99947.25
2018-12-09T22:59:41.628Z,99944.81
2018-12-09T23:02:51.365Z,99957.20
2018-12-09T23:05:57.746Z,99970.57
2018-12-09T23:09:02.765Z,99977.42
2018-12-09T23:12:07.237Z,99990.59
2018-12-09T23:15:12.281Z,99993.28
2018-12-09T23:18:16.875Z,99995.45
2018-12-09T23:21:21.566Z,100002.09
2018-12-09T23:27:25.881Z,100001.00
2018-12-09T23:30:30.314Z,100028.54
2018-12-09T23:33:35.388Z,100023.25
2018-12-09T23:36:39.970Z,100018.69
2018-12-09T23:39:44.601Z,100022.99
2018-12-09T23:42:50.017Z,100032.71
2018-12-09T23:45:54.676Z,100037.21
2018-12-09T23:48:59.385Z,100043.44
2018-12-09T23:52:05.747Z,100052.94
2018-12-09T23:55:10.140Z,100046.44
2018-12-09T23:58:15.042Z,100051.03
